Terminal Aerodrome Forecast
Issued by NWS

Home | Current Version | Previous Version | Text Only | Print | Product List | Glossary On
Versions: 1 2 3 4 5 6 7 8 9 10 11 12 13 14 15 16 17 18 19
790
FTUS43 KAPX 221720
TAFAPN
TAF
KAPN 221720Z 2218/2318 35015G22KT P6SM SKC
     FM222100 33010G18KT P6SM SKC
     FM222300 32007KT P6SM SKC
     FM230100 00000KT P6SM SKC
     FM231500 24010KT P6SM SKC=

USA.gov is the U.S. government's official web portal to all federal, state and local government web resources and services.